KDPG/DPG METAR and TAF weather

Enter ICAO airport designator
Station Type Date Time Source
KDPG METAR 2019/04/17 22:50 UTC NOAA

KDPG 172250Z 31009G15KT 50SM FEW060 FEW095 SCT200 15/03 A3022 RMK SLP220 ACSL DSNT NW-N T01470033 LAST


Station Type Date Time Source
KDPG Decoded METAR 2019/04/17 22:50 UTC NOAA

Dugway Proving Grounds, UT, United States (KDPG) 40-10N 112-56W 1325M
Apr 17, 2019 - 06:50 PM EDT / 2019.04.17 2250 UTC
Wind: from the NW (310 degrees) at 10 MPH (9 KT) gusting to 17 MPH (15 KT):0
Visibility: 50 mile(s):0
Sky conditions: partly cloudy
Temperature: 58.5 F (14.7 C)
Dew Point: 37.9 F (3.3 C)
Relative Humidity: 46%
Pressure (altimeter): 30.22 in. Hg (1023 hPa)
ob: KDPG 172250Z 31009G15KT 50SM FEW060 FEW095 SCT200 15/03 A3022 RMK SLP220 ACSL DSNT NW-N T01470033 LAST
cycle: 23

Station Type Date Time Source
KDPG TAF UTC NOAA

Error!

Example: see airport list